Time;durP1;ratioP1;P1;durP2;ratioP2;P2;SDS_P1;SDS_P2;PMS_P1;PMS_P2;Temp;Humidity;BMP_temperature;BMP_pressure;BME280_temperature;BME280_humidity;BME280_pressure;Samples;Min_cycle;Max_cycle;Signal;HPM_P1;HPM_P2
2022/08/23 00:01:58;;;;;;;39.80;28.10;;;23.00;57.80;;;;;;4996518;28;20022;-79
2022/08/23 00:04:30;;;;;;;36.38;28.45;;;22.90;57.70;;;;;;5014794;28;20026;-78
2022/08/23 00:06:57;;;;;;;37.22;28.88;;;22.90;57.50;;;;;;5014947;28;20105;-79
2022/08/23 00:09:25;;;;;;;36.22;27.80;;;22.90;57.70;;;;;;5015135;28;20061;-78
2022/08/23 00:12:02;;;;;;;33.10;28.25;;;22.90;57.60;;;;;;5014763;28;20036;-79
2022/08/23 00:14:30;;;;;;;33.88;28.48;;;22.90;57.80;;;;;;5013244;28;20093;-78
2022/08/23 00:16:57;;;;;;;38.15;28.92;;;22.80;57.70;;;;;;5014589;28;20045;-79
2022/08/23 00:19:24;;;;;;;34.38;28.35;;;22.80;58.00;;;;;;5014301;28;20376;-79
2022/08/23 00:21:51;;;;;;;38.70;28.50;;;22.80;58.30;;;;;;5015002;28;20030;-78
2022/08/23 00:24:18;;;;;;;42.65;29.17;;;;;;;;;;5015821;28;20030;-79
2022/08/23 00:26:50;;;;;;;39.78;28.13;;;;;;;;;;5015219;28;20030;-79
2022/08/23 00:29:17;;;;;;;35.17;26.92;;;;;;;;;;5014442;28;20540;-79
2022/08/23 00:31:44;;;;;;;39.92;28.20;;;22.70;58.30;;;;;;5012463;28;20383;-77
2022/08/23 00:34:10;;;;;;;39.40;28.35;;;22.50;59.00;;;;;;5009525;28;20030;-80
2022/08/23 00:36:37;;;;;;;36.63;28.13;;;22.50;59.10;;;;;;5014810;28;20376;-79
2022/08/23 00:39:03;;;;;;;36.60;28.95;;;22.40;59.40;;;;;;5014592;28;20041;-79
2022/08/23 00:41:31;;;;;;;46.55;29.20;;;22.30;59.70;;;;;;5014424;28;20104;-78
2022/08/23 00:49:34;;;;;;;43.00;29.48;;;22.20;60.10;;;;;;5009246;28;20053;-78
2022/08/23 00:52:17;;;;;;;39.85;30.58;;;22.10;60.80;;;;;;5002177;28;20021;-77
2022/08/23 00:54:44;;;;;;;37.35;31.48;;;22.10;60.20;;;;;;5014000;28;20474;-78
2022/08/23 00:57:14;;;;;;;44.35;32.72;;;22.10;60.50;;;;;;5014288;28;20026;-77
2022/08/23 00:59:40;;;;;;;40.60;31.73;;;22.00;60.40;;;;;;4991239;28;20030;-77
2022/08/23 01:02:07;;;;;;;47.50;32.00;;;22.00;60.80;;;;;;5013739;28;20024;-78
2022/08/23 01:04:38;;;;;;;48.80;31.90;;;22.00;60.60;;;;;;5014149;28;20022;-77
2022/08/23 01:07:15;;;;;;;41.88;31.67;;;21.90;61.10;;;;;;5013769;28;20072;-77
2022/08/23 01:09:43;;;;;;;38.38;30.83;;;21.90;60.90;;;;;;5014222;28;20036;-79
2022/08/23 01:12:18;;;;;;;39.25;31.48;;;21.90;61.30;;;;;;4987484;28;20199;-79
2022/08/23 01:14:59;;;;;;;39.58;32.53;;;21.80;61.50;;;;;;5013611;28;20049;-79
2022/08/23 01:17:52;;;;;;;45.72;32.17;;;21.80;61.30;;;;;;4992492;28;20038;-78
2022/08/23 01:20:22;;;;;;;42.75;33.17;;;21.70;61.70;;;;;;5013015;28;20373;-78
2022/08/23 01:22:53;;;;;;;46.67;32.63;;;21.70;61.90;;;;;;5013602;28;20021;-79
2022/08/23 01:25:22;;;;;;;44.80;32.72;;;21.70;62.20;;;;;;5013551;28;20026;-79
2022/08/23 01:27:48;;;;;;;49.70;33.00;;;21.70;62.50;;;;;;5013156;28;20026;-79
2022/08/23 01:30:19;;;;;;;43.17;31.15;;;21.60;62.40;;;;;;4996198;28;20068;-79
2022/08/23 01:32:52;;;;;;;40.13;31.23;;;21.60;62.60;;;;;;5017044;28;20089;-78
2022/08/23 01:35:23;;;;;;;44.13;31.05;;;21.60;62.70;;;;;;5020254;28;20044;-78
2022/08/23 01:37:49;;;;;;;44.45;33.28;;;21.50;63.00;;;;;;5015204;28;20034;-78
2022/08/23 01:40:15;;;;;;;43.58;32.45;;;21.50;63.10;;;;;;5013138;28;20026;-79
2022/08/23 01:42:41;;;;;;;44.78;30.77;;;21.50;63.20;;;;;;5013508;28;20037;-79
2022/08/23 01:45:12;;;;;;;43.35;31.48;;;21.50;63.30;;;;;;5012544;28;20058;-79
2022/08/23 01:47:39;;;;;;;37.83;31.38;;;21.40;63.00;;;;;;5013264;28;20021;-79
2022/08/23 01:50:06;;;;;;;45.60;30.90;;;21.40;63.40;;;;;;5012879;28;20159;-79
2022/08/23 01:52:33;;;;;;;37.83;30.48;;;21.40;63.70;;;;;;5002680;28;20133;-79
2022/08/23 01:55:00;;;;;;;44.42;29.98;;;21.30;63.80;;;;;;5019007;28;20044;-79
2022/08/23 01:57:27;;;;;;;38.70;31.27;;;21.30;63.70;;;;;;5022005;28;20014;-79
2022/08/23 01:59:54;;;;;;;40.67;30.08;;;21.30;63.80;;;;;;4998166;28;20483;-79
2022/08/23 02:02:20;;;;;;;38.58;30.48;;;21.30;63.90;;;;;;4998866;28;20030;-79
2022/08/23 02:04:46;;;;;;;40.67;29.15;;;21.30;63.60;;;;;;5015144;28;20033;-79
2022/08/23 02:07:12;;;;;;;44.65;30.60;;;21.30;63.70;;;;;;5013187;28;20029;-78
2022/08/23 02:09:38;;;;;;;37.10;28.85;;;21.20;63.50;;;;;;5014482;28;20026;-79
2022/08/23 02:12:04;;;;;;;46.65;30.30;;;21.30;63.70;;;;;;5013466;28;20029;-79
2022/08/23 02:14:30;;;;;;;38.90;30.17;;;21.30;63.70;;;;;;5012658;28;20367;-80
2022/08/23 02:16:57;;;;;;;42.38;29.65;;;21.20;63.60;;;;;;5012536;28;20029;-81
2022/08/23 02:19:24;;;;;;;42.92;30.35;;;21.30;63.70;;;;;;5012368;28;20021;-79
2022/08/23 02:21:51;;;;;;;38.35;28.90;;;21.30;64.00;;;;;;5012513;28;20030;-79
2022/08/23 02:24:23;;;;;;;40.33;28.63;;;21.30;64.00;;;;;;5012309;28;20479;-80
2022/08/23 02:26:52;;;;;;;38.78;30.25;;;21.30;63.80;;;;;;5012655;28;20022;-79
2022/08/23 02:29:20;;;;;;;38.15;29.83;;;21.30;64.00;;;;;;4994750;28;20060;-82
2022/08/23 02:31:46;;;;;;;40.78;29.58;;;21.30;64.00;;;;;;5012201;28;20068;-80
2022/08/23 02:34:14;;;;;;;37.20;29.23;;;21.30;63.80;;;;;;5012754;28;20117;-79
2022/08/23 02:36:41;;;;;;;37.75;29.35;;;21.30;64.00;;;;;;5012266;28;20068;-80
2022/08/23 02:39:07;;;;;;;41.63;30.38;;;21.30;64.10;;;;;;5012313;28;20180;-80
2022/08/23 02:41:33;;;;;;;39.28;29.60;;;21.30;64.10;;;;;;5011141;28;20057;-79
2022/08/23 02:43:59;;;;;;;36.58;29.50;;;21.40;64.30;;;;;;5012349;28;20017;-79
2022/08/23 02:46:25;;;;;;;38.65;30.67;;;21.30;64.20;;;;;;4994402;28;20053;-80
2022/08/23 02:48:52;;;;;;;42.65;29.33;;;21.30;64.20;;;;;;4994452;28;20021;-80
2022/08/23 02:51:18;;;;;;;44.92;30.30;;;21.40;64.20;;;;;;5010834;28;20045;-79
2022/08/23 02:53:44;;;;;;;40.50;29.58;;;21.30;64.20;;;;;;4980942;28;20463;-80
2022/08/23 02:56:11;;;;;;;43.88;29.98;;;21.40;64.00;;;;;;4981431;28;20034;-79
2022/08/23 02:58:38;;;;;;;41.25;31.00;;;21.40;64.20;;;;;;5011884;28;20095;-80
2022/08/23 03:01:05;;;;;;;38.73;30.63;;;21.40;64.30;;;;;;5012662;28;20510;-79
2022/08/23 03:03:31;;;;;;;41.40;31.77;;;21.40;64.60;;;;;;5012129;28;20550;-82
2022/08/23 03:05:57;;;;;;;44.20;30.63;;;21.40;64.30;;;;;;5010893;28;20124;-79
2022/08/23 03:08:23;;;;;;;37.10;29.77;;;21.50;64.20;;;;;;5011920;28;20062;-79
2022/08/23 03:10:51;;;;;;;44.78;29.02;;;21.50;64.20;;;;;;5011938;28;20417;-80
2022/08/23 03:13:18;;;;;;;43.80;30.25;;;21.60;64.10;;;;;;5012339;28;20034;-80
2022/08/23 03:15:44;;;;;;;45.33;30.10;;;21.60;64.30;;;;;;5016196;28;20145;-79
2022/08/23 03:18:11;;;;;;;40.88;28.40;;;21.60;64.30;;;;;;5015737;28;20022;-80
2022/08/23 03:20:40;;;;;;;45.33;30.38;;;21.70;64.30;;;;;;5017127;28;20116;-80
2022/08/23 03:23:07;;;;;;;40.42;27.38;;;21.70;64.00;;;;;;5018343;28;20026;-80
2022/08/23 03:25:33;;;;;;;40.95;27.55;;;21.80;63.80;;;;;;5015584;28;20522;-79
2022/08/23 03:28:03;;;;;;;39.55;27.70;;;21.90;63.90;;;;;;5013908;28;20070;-78
2022/08/23 03:30:29;;;;;;;35.78;26.92;;;21.90;63.80;;;;;;5015136;28;20502;-78
2022/08/23 03:32:55;;;;;;;30.52;25.55;;;22.00;63.60;;;;;;5015423;28;20053;-78
2022/08/23 03:35:21;;;;;;;38.58;27.75;;;22.00;63.50;;;;;;5015841;28;20022;-78
2022/08/23 03:37:47;;;;;;;36.88;27.10;;;22.10;63.60;;;;;;5017635;28;20082;-80
2022/08/23 03:40:12;;;;;;;39.50;27.63;;;22.10;63.60;;;;;;5018038;28;20032;-79
2022/08/23 03:42:38;;;;;;;33.65;25.17;;;22.20;63.30;;;;;;5015553;28;20117;-77
2022/08/23 03:45:04;;;;;;;34.65;25.30;;;22.30;63.20;;;;;;4994409;28;20042;-80
2022/08/23 03:47:30;;;;;;;32.00;25.00;;;22.40;62.90;;;;;;4996112;28;20379;-79
2022/08/23 03:49:56;;;;;;;34.88;24.40;;;22.50;63.00;;;;;;5008293;28;20130;-79
2022/08/23 03:52:23;;;;;;;27.27;24.02;;;22.50;62.70;;;;;;4995634;28;20049;-80
2022/08/23 03:54:49;;;;;;;35.13;24.13;;;22.60;62.60;;;;;;4995669;28;20030;-78
2022/08/23 03:57:14;;;;;;;36.35;23.90;;;22.60;62.40;;;;;;4995314;28;20023;-79
2022/08/23 03:59:41;;;;;;;39.38;24.63;;;22.70;62.50;;;;;;4995559;28;20406;-79
2022/08/23 04:02:07;;;;;;;27.73;22.50;;;22.70;62.50;;;;;;4995478;28;20089;-79
2022/08/23 04:04:33;;;;;;;34.70;24.05;;;22.70;62.10;;;;;;4995143;28;20033;-78
2022/08/23 04:07:00;;;;;;;30.80;24.00;;;;;;;;;;4995311;28;20026;-78
2022/08/23 04:09:26;;;;;;;35.73;25.63;;;;;;;;;;4995296;28;20018;-79
2022/08/23 04:11:52;;;;;;;37.35;24.45;;;;;;;;;;4995434;28;20526;-78
2022/08/23 04:14:19;;;;;;;40.95;25.63;;;;;;;;;;4996238;28;20037;-79
2022/08/23 04:16:45;;;;;;;32.53;24.93;;;;;;;;;;4996214;28;20037;-79
2022/08/23 04:19:13;;;;;;;29.77;22.33;;;;;;;;;;4987600;28;20037;-79
2022/08/23 04:21:42;;;;;;;35.60;23.17;;;;;;;;;;4994830;28;20025;-79
2022/08/23 04:24:08;;;;;;;38.17;23.85;;;;;;;;;;4995750;28;20042;-79
2022/08/23 04:26:34;;;;;;;38.05;22.65;;;;;;;;;;4985859;28;20054;-80
2022/08/23 04:29:01;;;;;;;29.90;22.08;;;;;;;;;;4998267;28;20049;-77
2022/08/23 04:31:27;;;;;;;35.20;22.73;;;;;;;;;;5000222;28;20022;-79
2022/08/23 04:33:55;;;;;;;27.92;21.17;;;;;;;;;;4996980;28;20105;-79
2022/08/23 04:36:22;;;;;;;30.25;21.17;;;;;;;;;;4995293;28;20314;-79
2022/08/23 04:38:48;;;;;;;31.05;21.70;;;;;;;;;;4992379;28;20033;-79
2022/08/23 04:43:59;;;;;;;31.02;22.33;;;;;;;;;;4992566;28;20572;-79
2022/08/23 04:46:26;;;;;;;33.07;21.40;;;;;;;;;;5021713;28;20050;-80
2022/08/23 04:48:52;;;;;;;27.63;21.48;;;;;;;;;;5013608;28;20025;-79
2022/08/23 04:51:21;;;;;;;31.85;21.83;;;;;;;;;;5014682;28;20026;-80
2022/08/23 04:53:47;;;;;;;31.95;21.15;;;;;;;;;;5014459;28;20010;-79
2022/08/23 04:56:13;;;;;;;31.63;20.45;;;;;;;;;;5014227;28;20034;-79
2022/08/23 04:58:40;;;;;;;27.33;19.95;;;;;;;;;;5014465;28;20030;-81
2022/08/23 05:01:07;;;;;;;39.33;21.20;;;;;;;;;;5014789;28;20022;-78
2022/08/23 05:03:33;;;;;;;29.02;20.40;;;;;;;;;;5014131;28;20030;-78
2022/08/23 05:06:00;;;;;;;30.80;20.52;;;;;;;;;;5013994;28;20040;-79
2022/08/23 05:08:26;;;;;;;31.77;19.55;;;;;;;;;;5013842;28;20029;-81
2022/08/23 05:10:53;;;;;;;31.73;20.80;;;;;;;;;;5013898;28;20030;-80
2022/08/23 05:13:19;;;;;;;29.90;19.77;;;;;;;;;;5013767;28;20029;-81
2022/08/23 05:15:45;;;;;;;30.57;19.23;;;;;;;;;;5013539;28;20297;-81
2022/08/23 05:18:12;;;;;;;30.10;18.50;;;;;;;;;;5013584;28;20064;-79
2022/08/23 05:20:38;;;;;;;25.87;18.37;;;;;;;;;;5013268;28;20430;-81
2022/08/23 05:23:07;;;;;;;25.00;18.00;;;;;;;;;;5014284;28;20025;-82
2022/08/23 05:25:48;;;;;;;23.73;17.08;;;;;;;;;;5004435;28;20022;-80
2022/08/23 05:28:25;;;;;;;30.05;17.25;;;;;;;;;;5012898;28;20117;-80
2022/08/23 05:31:00;;;;;;;26.77;18.50;;;;;;;;;;5013191;28;20084;-81
2022/08/23 05:33:27;;;;;;;30.58;19.20;;;;;;;;;;5008353;28;20031;-80
2022/08/23 05:35:53;;;;;;;29.73;18.08;;;;;;;;;;5005161;28;20050;-81
2022/08/23 05:38:19;;;;;;;30.47;18.80;;;;;;;;;;5014119;28;20030;-80
2022/08/23 05:41:05;;;;;;;26.13;17.77;;;;;;;;;;5012121;28;20084;-82
2022/08/23 05:43:32;;;;;;;32.30;18.15;;;;;;;;;;5013546;28;20029;-81
2022/08/23 05:46:09;;;;;;;28.42;18.42;;;;;;;;;;5005340;28;20050;-81
2022/08/23 05:48:35;;;;;;;;;;;;;;;;;;5012648;28;20018;-80
2022/08/23 05:51:08;;;;;;;26.40;18.60;;;;;;;;;;5008683;28;19906;-81
2022/08/23 05:53:34;;;;;;;22.73;18.45;;;;;;;;;;5013004;28;20025;-79
2022/08/23 05:56:10;;;;;;;26.75;17.25;;;;;;;;;;5012464;28;20445;-82
2022/08/23 05:58:36;;;;;;;25.10;18.67;;;;;;;;;;5012643;28;20046;-81
2022/08/23 06:01:02;;;;;;;25.30;17.65;;;;;;;;;;5012371;28;20022;-82
2022/08/23 06:03:29;;;;;;;22.50;16.67;;;;;;;;;;5012162;28;20072;-80
2022/08/23 06:05:58;;;;;;;28.73;20.37;;;;;;;;;;5012276;28;20068;-81
2022/08/23 06:08:25;;;;;;;26.25;17.23;;;;;;;;;;5012762;28;20025;-82
2022/08/23 06:11:11;;;;;;;23.75;17.08;;;;;;;;;;5010544;28;20034;-82
2022/08/23 06:13:42;;;;;;;26.67;16.77;;;;;;;;;;5014224;28;20443;-83
2022/08/23 06:16:09;;;;;;;29.90;17.73;;;;;;;;;;5002855;28;20041;-82
2022/08/23 06:18:35;;;;;;;25.77;17.73;;;;;;;;;;5018534;28;20120;-83
2022/08/23 06:21:07;;;;;;;21.63;17.63;;;;;;;;;;5011447;28;20026;-80
2022/08/23 06:23:33;;;;;;;29.73;20.08;;;;;;;;;;5011473;28;20050;-81
2022/08/23 06:26:00;;;;;;;24.77;17.63;;;;;;;;;;5012529;28;20025;-82
2022/08/23 06:28:26;;;;;;;;;;;;;;;;;;4984904;28;20117;-83
2022/08/23 06:30:54;;;;;;;26.95;21.17;;;22.70;62.10;;;;;;5012521;28;19945;-82
2022/08/23 06:33:20;;;;;;;21.80;16.52;;;;;;;;;;5016282;28;20208;-82
2022/08/23 06:35:47;;;;;;;34.70;17.23;;;;;;;;;;4997959;28;20033;-82
2022/08/23 06:38:13;;;;;;;30.67;18.85;;;31.20;48.30;;;;;;5015380;28;20358;-82
2022/08/23 06:40:39;;;;;;;24.27;17.57;;;33.90;43.60;;;;;;5013096;28;20121;-81
2022/08/23 06:43:04;;;;;;;27.00;16.33;;;33.70;43.20;;;;;;5012876;28;20026;-82
2022/08/23 06:45:31;;;;;;;22.40;16.63;;;33.80;42.70;;;;;;5012692;28;20054;-82
2022/08/23 06:47:57;;;;;;;26.63;16.92;;;34.20;42.30;;;;;;4993727;28;20383;-82
2022/08/23 06:50:23;;;;;;;21.87;16.50;;;34.80;41.50;;;;;;5012350;28;20125;-82
2022/08/23 06:52:49;;;;;;;28.07;15.77;;;35.10;40.90;;;;;;4995080;28;20072;-81
2022/08/23 06:55:15;;;;;;;22.83;15.82;;;35.40;40.60;;;;;;4995346;28;20045;-83
2022/08/23 06:57:41;;;;;;;31.52;15.95;;;35.70;40.10;;;;;;5020001;28;20506;-82
2022/08/23 07:00:10;;;;;;;29.88;16.60;;;35.40;40.10;;;;;;4994872;28;20372;-84
2022/08/23 07:02:36;;;;;;;27.58;17.10;;;34.70;40.30;;;;;;5012508;28;20018;-84
2022/08/23 07:05:02;;;;;;;29.55;15.50;;;34.60;41.10;;;;;;5011485;28;20544;-83
2022/08/23 07:07:28;;;;;;;24.85;16.85;;;34.80;41.10;;;;;;4994453;28;20044;-84
2022/08/23 07:09:55;;;;;;;25.93;15.67;;;35.50;40.50;;;;;;5013246;28;20022;-84
2022/08/23 07:12:21;;;;;;;33.45;16.42;;;35.80;39.80;;;;;;5014573;28;20026;-82
2022/08/23 07:14:48;;;;;;;19.33;15.00;;;36.20;39.50;;;;;;5012431;28;20113;-82
2022/08/23 07:17:22;;;;;;;33.00;15.82;;;36.80;39.10;;;;;;5011834;28;20049;-83
2022/08/23 07:19:56;;;;;;;24.25;15.23;;;37.70;38.20;;;;;;5012782;28;20399;-84
2022/08/23 07:22:23;;;;;;;25.63;15.40;;;38.70;37.40;;;;;;5008503;28;20104;-82
2022/08/23 07:24:49;;;;;;;23.30;15.10;;;39.20;36.00;;;;;;4995435;28;20018;-83
2022/08/23 07:27:15;;;;;;;21.15;14.73;;;39.20;35.90;;;;;;4998558;28;20072;-81
2022/08/23 07:29:41;;;;;;;22.27;13.40;;;39.10;35.80;;;;;;5016319;28;20034;-82
2022/08/23 07:32:07;;;;;;;27.90;15.52;;;39.10;36.20;;;;;;5019133;28;20061;-81
2022/08/23 07:34:33;;;;;;;25.42;14.27;;;39.30;36.10;;;;;;5024325;28;20034;-84
2022/08/23 07:37:00;;;;;;;23.52;13.85;;;39.00;36.00;;;;;;5019373;28;20037;-84
2022/08/23 07:39:26;;;;;;;19.65;13.57;;;39.10;36.20;;;;;;5013261;28;20026;-84
2022/08/23 07:41:52;;;;;;;;;;;;;;;;;;5014168;28;20018;-81
2022/08/23 07:44:19;;;;;;;21.65;14.02;;;39.40;35.70;;;;;;5014677;28;19905;-84
2022/08/23 07:46:45;;;;;;;27.15;15.00;;;39.70;36.00;;;;;;5019767;28;20093;-85
2022/08/23 07:49:12;;;;;;;18.13;13.48;;;;;;;;;;5023208;28;20026;-85
2022/08/23 07:51:46;;;;;;;23.60;12.60;;;;;;;;;;5015254;28;20022;-86
2022/08/23 07:54:12;;;;;;;25.20;13.77;;;;;;;;;;5013467;28;20022;-84
2022/08/23 07:56:39;;;;;;;20.85;12.10;;;;;;;;;;5013688;28;20034;-84
2022/08/23 07:59:06;;;;;;;23.25;13.65;;;;;;;;;;5013094;28;20068;-83
2022/08/23 08:01:32;;;;;;;30.75;13.85;;;;;;;;;;5016243;28;20116;-84
2022/08/23 08:03:59;;;;;;;20.08;13.38;;;;;;;;;;5016928;28;20013;-83
2022/08/23 08:06:28;;;;;;;26.25;13.05;;;;;;;;;;5016958;28;20501;-83
2022/08/23 08:08:54;;;;;;;23.00;13.32;;;;;;;;;;5026065;28;20072;-84
2022/08/23 08:11:23;;;;;;;21.17;13.20;;;;;;;;;;5016653;28;20104;-85
2022/08/23 08:13:50;;;;;;;19.85;13.35;;;;;;;;;;5016229;28;20049;-84
2022/08/23 08:16:21;;;;;;;19.52;12.00;;;;;;;;;;5016165;28;20072;-86
2022/08/23 08:18:47;;;;;;;20.80;12.52;;;;;;;;;;5016355;28;20079;-84
2022/08/23 08:21:14;;;;;;;26.90;14.35;;;;;;;;;;5016769;28;20014;-84
2022/08/23 08:23:41;;;;;;;26.23;13.82;;;;;;;;;;5016234;28;20081;-85
2022/08/23 08:26:08;;;;;;;25.45;12.50;;;;;;;;;;5016933;28;20167;-83
2022/08/23 08:28:35;;;;;;;20.15;12.25;;;;;;;;;;5015902;28;20053;-84
2022/08/23 08:31:02;;;;;;;14.93;11.93;;;;;;;;;;5015459;28;20030;-83
2022/08/23 08:33:29;;;;;;;16.15;12.25;;;;;;;;;;5015350;28;20021;-84
2022/08/23 08:35:55;;;;;;;20.25;10.88;;;;;;;;;;5017010;28;20060;-82
2022/08/23 08:38:22;;;;;;;23.98;12.90;;;;;;;;;;5020126;28;20145;-83
2022/08/23 08:41:20;;;;;;;18.92;11.50;;;;;;;;;;5016448;28;20037;-86
2022/08/23 08:44:05;;;;;;;20.20;10.23;;;;;;;;;;4971763;28;20034;-83
2022/08/23 08:46:45;;;;;;;14.30;10.85;;;;;;;;;;5016233;28;20049;-82
2022/08/23 08:49:15;;;;;;;18.95;10.50;;;;;;;;;;4999166;28;20445;-85
2022/08/23 08:51:50;;;;;;;15.25;10.35;;;;;;;;;;5019482;28;20029;-83
2022/08/23 08:54:18;;;;;;;18.90;11.73;;;;;;;;;;5017455;28;20022;-84
2022/08/23 08:56:49;;;;;;;17.75;13.13;;;;;;;;;;4998164;28;20034;-84
2022/08/23 08:59:19;;;;;;;15.30;12.10;;;;;;;;;;5015036;28;20026;-84
2022/08/23 09:01:46;;;;;;;15.05;11.15;;;;;;;;;;5009270;28;20026;-84
2022/08/23 09:04:13;;;;;;;18.95;11.30;;;;;;;;;;5017735;28;20025;-86
2022/08/23 09:06:58;;;;;;;13.88;10.52;;;;;;;;;;5005349;28;20404;-84
2022/08/23 09:09:42;;;;;;;19.05;11.63;;;;;;;;;;5004685;28;20026;-83
2022/08/23 09:12:15;;;;;;;12.67;10.27;;;;;;;;;;5014293;28;20364;-83
2022/08/23 09:15:00;;;;;;;14.90;9.68;;;;;;;;;;4998086;28;20502;-82
2022/08/23 09:17:56;;;;;;;15.80;10.02;;;;;;;;;;5014807;28;20407;-84
2022/08/23 09:20:23;;;;;;;13.02;10.13;;;;;;;;;;5006654;28;20038;-84
2022/08/23 09:22:57;;;;;;;17.63;10.43;;;43.70;32.10;;;;;;5016091;28;20025;-84
2022/08/23 09:25:23;;;;;;;18.55;11.05;;;43.70;31.70;;;;;;5015807;28;20512;-83
2022/08/23 09:27:49;;;;;;;15.88;10.10;;;43.30;32.00;;;;;;5015905;28;20479;-85
2022/08/23 09:30:18;;;;;;;14.20;10.07;;;43.60;32.10;;;;;;5015503;28;20032;-85
2022/08/23 09:32:45;;;;;;;18.58;9.88;;;;;;;;;;5014327;28;20072;-85
2022/08/23 09:35:14;;;;;;;16.20;10.02;;;;;;;;;;5014453;28;20026;-86
2022/08/23 09:37:49;;;;;;;16.05;9.23;;;;;;;;;;5015725;28;20080;-85
2022/08/23 09:40:17;;;;;;;14.30;8.57;;;;;;;;;;4998177;28;20028;-84
2022/08/23 09:42:46;;;;;;;15.60;9.52;;;;;;;;;;5016799;28;20048;-82
2022/08/23 09:45:29;;;;;;;14.55;9.48;;;;;;;;;;5016020;28;20042;-83
2022/08/23 09:47:55;;;;;;;15.38;9.55;;;;;;;;;;5013636;28;20517;-84
2022/08/23 09:50:26;;;;;;;16.30;9.07;;;;;;;;;;5014333;28;20028;-86
2022/08/23 09:52:58;;;;;;;16.05;9.10;;;;;;;;;;5014495;28;20029;-83
2022/08/23 09:55:26;;;;;;;11.00;8.93;;;;;;;;;;5014003;28;20048;-82
2022/08/23 09:57:52;;;;;;;15.20;9.27;;;44.30;31.70;;;;;;5014231;28;20038;-84
2022/08/23 10:00:24;;;;;;;16.02;8.73;;;45.40;29.90;;;;;;5014013;28;20541;-84
2022/08/23 10:03:10;;;;;;;11.05;7.93;;;;;;;;;;5015383;28;20018;-87
2022/08/23 10:05:38;;;;;;;12.30;7.88;;;;;;;;;;4994245;28;20033;-85
2022/08/23 10:08:04;;;;;;;9.43;8.30;;;45.80;29.80;;;;;;5014217;28;20022;-85
2022/08/23 10:10:46;;;;;;;11.07;8.10;;;46.80;29.10;;;;;;5014403;28;20041;-84
2022/08/23 10:13:13;;;;;;;15.63;8.27;;;46.90;29.10;;;;;;5014155;28;20022;-85
2022/08/23 10:16:01;;;;;;;14.85;8.90;;;46.90;29.00;;;;;;5015599;28;20336;-84
2022/08/23 10:18:45;;;;;;;14.50;8.35;;;46.10;29.10;;;;;;5016432;28;20053;-86
2022/08/23 10:21:20;;;;;;;18.90;8.23;;;45.50;29.50;;;;;;5011226;28;20026;-85
2022/08/23 10:24:10;;;;;;;10.70;7.97;;;45.20;29.60;;;;;;5021666;28;20487;-83
2022/08/23 10:26:39;;;;;;;10.23;7.35;;;;;;;;;;5015292;28;20071;-85
2022/08/23 10:32:30;;;;;;;12.55;8.82;;;40.30;33.20;;;;;;5011265;28;20423;-85
2022/08/23 10:35:10;;;;;;;13.18;9.20;;;39.30;33.30;;;;;;5013725;28;20049;-84
2022/08/23 10:37:54;;;;;;;11.82;9.52;;;;;;;;;;4995715;28;20467;-84
2022/08/23 10:40:20;;;;;;;17.58;9.43;;;38.60;34.20;;;;;;4997323;28;20029;-83
2022/08/23 10:43:02;;;;;;;12.00;10.80;;;;;;;;;;5013604;28;20029;-84
2022/08/23 10:45:36;;;;;;;14.18;11.40;;;37.40;35.70;;;;;;4995735;28;20050;-84
2022/08/23 10:48:02;;;;;;;14.80;9.75;;;36.80;35.80;;;;;;5012000;28;20442;-83
2022/08/23 10:50:41;;;;;;;11.23;8.18;;;36.50;35.70;;;;;;5012427;28;20038;-85
2022/08/23 10:53:12;;;;;;;17.52;9.20;;;35.90;36.20;;;;;;5012791;28;20125;-82
2022/08/23 10:56:12;;;;;;;14.13;9.23;;;35.60;36.80;;;;;;4994885;28;20487;-83
2022/08/23 10:59:13;;;;;;;16.70;10.25;;;35.40;36.90;;;;;;5012995;28;20118;-84
2022/08/23 11:01:57;;;;;;;12.90;10.02;;;35.20;37.40;;;;;;5012589;28;20030;-84
2022/08/23 11:04:33;;;;;;;13.13;9.48;;;34.90;38.00;;;;;;4994607;28;20034;-83
2022/08/23 11:07:13;;;;;;;11.77;9.00;;;34.90;37.90;;;;;;4996450;28;20068;-84
2022/08/23 11:09:49;;;;;;;15.07;10.15;;;34.80;38.00;;;;;;5013545;28;20026;-82
2022/08/23 11:12:27;;;;;;;11.15;9.57;;;34.70;38.20;;;;;;5013182;28;20022;-84
2022/08/23 11:15:05;;;;;;;12.82;8.80;;;34.70;37.90;;;;;;5013355;28;20112;-83
2022/08/23 11:17:50;;;;;;;13.05;9.15;;;34.60;38.00;;;;;;5005083;28;20030;-83
2022/08/23 11:20:50;;;;;;;14.02;9.23;;;34.40;38.00;;;;;;5011894;28;20014;-82
2022/08/23 11:23:37;;;;;;;13.20;8.55;;;34.40;38.20;;;;;;5003924;28;20109;-86
2022/08/23 11:26:06;;;;;;;10.05;8.85;;;34.40;38.00;;;;;;5012877;28;20032;-83
2022/08/23 11:28:40;;;;;;;12.35;8.27;;;34.50;38.00;;;;;;5012236;28;20024;-83
2022/08/23 11:31:20;;;;;;;14.70;7.55;;;34.60;37.90;;;;;;5012371;28;20037;-83
2022/08/23 11:33:50;;;;;;;16.75;12.25;;;34.50;37.80;;;;;;5000448;28;20046;-85
2022/08/23 11:36:20;;;;;;;17.17;9.55;;;34.50;37.80;;;;;;4997426;28;20061;-83
2022/08/23 11:38:46;;;;;;;12.38;8.48;;;34.40;37.80;;;;;;4998805;28;20550;-82
2022/08/23 11:41:29;;;;;;;14.17;8.33;;;34.30;38.50;;;;;;5020094;28;20061;-84
2022/08/23 11:43:55;;;;;;;13.80;8.88;;;34.10;37.70;;;;;;4991456;28;20029;-82
2022/08/23 11:46:26;;;;;;;12.40;8.90;;;34.00;37.80;;;;;;5016340;28;20042;-83
2022/08/23 11:49:12;;;;;;;10.60;8.05;;;33.90;37.90;;;;;;5015854;28;20081;-83
2022/08/23 11:52:04;;;;;;;16.65;9.65;;;33.80;38.10;;;;;;5015655;28;20087;-81
2022/08/23 11:54:42;;;;;;;14.75;9.98;;;33.60;38.30;;;;;;5016646;28;20034;-82
2022/08/23 11:57:42;;;;;;;10.00;7.60;;;33.60;38.60;;;;;;5016244;28;20065;-82
2022/08/23 12:00:31;;;;;;;15.73;9.02;;;33.60;38.30;;;;;;5015709;28;20085;-83
2022/08/23 12:03:04;;;;;;;13.00;8.13;;;33.70;38.40;;;;;;5015531;28;20033;-83
2022/08/23 12:05:33;;;;;;;20.13;10.20;;;33.70;38.30;;;;;;5015270;28;20014;-83
2022/08/23 12:08:01;;;;;;;21.30;9.70;;;33.70;38.60;;;;;;5016323;28;20435;-83
2022/08/23 12:10:42;;;;;;;13.25;8.82;;;33.70;38.60;;;;;;5014384;28;20030;-84
2022/08/23 12:13:21;;;;;;;8.80;7.72;;;;;;;;;;5017965;28;20022;-83
2022/08/23 12:16:10;;;;;;;10.32;6.88;;;33.60;38.30;;;;;;5010059;28;20030;-83
2022/08/23 12:18:48;;;;;;;14.77;6.75;;;33.20;36.70;;;;;;5015362;28;20447;-82
2022/08/23 12:21:26;;;;;;;8.23;5.72;;;33.20;36.40;;;;;;4997816;28;20024;-82
2022/08/23 12:24:15;;;;;;;15.02;6.43;;;33.00;36.60;;;;;;5009563;28;20022;-84
2022/08/23 12:26:48;;;;;;;9.43;6.45;;;32.90;36.90;;;;;;4964311;28;20083;-83
2022/08/23 12:29:47;;;;;;;8.20;6.35;;;33.00;37.50;;;;;;5015143;28;20049;-83
2022/08/23 12:32:29;;;;;;;9.70;6.85;;;32.90;37.70;;;;;;5015977;28;20535;-82
2022/08/23 12:35:23;;;;;;;13.32;6.80;;;32.60;38.10;;;;;;5016241;28;20044;-84
2022/08/23 12:38:01;;;;;;;13.73;7.80;;;32.40;38.40;;;;;;5016093;28;20044;-84
2022/08/23 12:40:36;;;;;;;14.18;8.13;;;32.40;38.80;;;;;;5002036;28;20082;-84
2022/08/23 12:43:09;;;;;;;8.18;6.63;;;32.60;39.20;;;;;;5015023;28;20026;-83
2022/08/23 12:45:42;;;;;;;9.60;6.28;;;32.60;37.90;;;;;;5014718;28;20042;-83
2022/08/23 12:48:11;;;;;;;6.88;6.15;;;32.50;37.20;;;;;;5014935;28;20532;-83
2022/08/23 12:50:40;;;;;;;8.20;5.20;;;32.50;37.50;;;;;;5015186;28;20080;-85
2022/08/23 12:53:15;;;;;;;10.20;7.60;;;32.50;37.70;;;;;;5016164;28;20536;-82
2022/08/23 12:55:49;;;;;;;12.52;6.50;;;32.50;37.80;;;;;;5020305;28;20018;-82
2022/08/23 12:58:24;;;;;;;14.95;7.53;;;32.40;38.00;;;;;;5015637;28;20045;-84
2022/08/23 13:00:56;;;;;;;9.20;6.88;;;32.40;38.30;;;;;;5002016;28;20040;-84
2022/08/23 13:03:31;;;;;;;7.80;6.95;;;32.50;37.90;;;;;;5014835;28;20083;-81
2022/08/23 13:05:59;;;;;;;14.48;7.07;;;32.60;38.10;;;;;;5015677;28;20036;-82
2022/08/23 13:08:31;;;;;;;13.77;8.48;;;32.80;38.20;;;;;;5024355;28;20022;-83
2022/08/23 13:10:57;;;;;;;9.25;7.10;;;32.90;38.40;;;;;;5027111;28;20085;-83
2022/08/23 13:13:27;;;;;;;11.03;7.23;;;33.00;37.60;;;;;;5014254;28;20058;-83
2022/08/23 13:16:00;;;;;;;8.95;7.38;;;33.10;37.80;;;;;;5010803;28;20038;-83
2022/08/23 13:18:39;;;;;;;11.52;7.35;;;33.10;38.00;;;;;;5008706;28;20108;-83
2022/08/23 13:21:34;;;;;;;17.17;7.55;;;33.10;38.30;;;;;;5018942;28;20021;-83
2022/08/23 13:24:36;;;;;;;10.73;7.55;;;33.00;38.30;;;;;;4980171;28;20044;-85
2022/08/23 13:27:14;;;;;;;10.00;7.20;;;33.00;38.30;;;;;;5015393;28;20018;-83
2022/08/23 13:29:55;;;;;;;13.93;7.57;;;32.90;38.20;;;;;;5015384;28;20033;-81
2022/08/23 13:32:26;;;;;;;10.98;7.57;;;32.70;38.70;;;;;;5014002;28;20022;-82
2022/08/23 13:34:53;;;;;;;14.48;7.75;;;32.60;39.80;;;;;;5016898;28;20110;-82
2022/08/23 13:37:28;;;;;;;7.95;7.03;;;32.60;38.70;;;;;;5016400;28;20037;-84
2022/08/23 13:40:05;;;;;;;10.38;6.95;;;32.50;38.40;;;;;;4996742;28;20029;-83